Time;durP1;ratioP1;P1;durP2;ratioP2;P2;SDS_P1;SDS_P2;PMS_P1;PMS_P2;Temp;Humidity;BMP_temperature;BMP_pressure;BME280_temperature;BME280_humidity;BME280_pressure;Samples;Min_cycle;Max_cycle;Signal;HPM_P1;HPM_P2
2024/03/13 00:00:46;;;;;;;24.50;9.13;;;10.80;99.90;;;;;;5008953;28;20233;-65
2024/03/13 00:03:15;;;;;;;22.60;9.07;;;10.80;99.90;;;;;;5010858;28;20309;-65
2024/03/13 00:05:43;;;;;;;22.57;10.47;;;10.80;99.90;;;;;;5011898;28;20186;-65
2024/03/13 00:08:13;;;;;;;28.80;10.30;;;10.80;99.90;;;;;;5010309;28;20633;-65
2024/03/13 00:10:41;;;;;;;23.90;10.53;;;10.80;99.90;;;;;;5009589;28;20860;-65
2024/03/13 00:13:10;;;;;;;26.70;10.40;;;10.80;99.90;;;;;;5009244;28;20220;-65
2024/03/13 00:15:38;;;;;;;28.20;10.67;;;10.80;99.90;;;;;;5009043;28;20222;-65
2024/03/13 00:18:08;;;;;;;26.10;11.07;;;10.80;99.90;;;;;;5009613;28;20226;-65
2024/03/13 00:20:37;;;;;;;33.00;12.23;;;10.80;99.90;;;;;;5008273;28;20202;-66
2024/03/13 00:23:05;;;;;;;31.03;11.97;;;10.80;99.90;;;;;;5003548;28;20206;-65
2024/03/13 00:25:34;;;;;;;35.37;13.17;;;10.80;99.90;;;;;;5008900;28;20704;-65
2024/03/13 00:28:01;;;;;;;28.33;12.33;;;10.80;99.90;;;;;;5010535;28;20210;-65
2024/03/13 00:30:30;;;;;;;37.17;13.97;;;10.80;99.90;;;;;;5005948;28;20655;-65
2024/03/13 00:32:59;;;;;;;35.27;12.80;;;10.80;99.90;;;;;;5008731;28;20225;-65
2024/03/13 00:35:29;;;;;;;34.67;13.33;;;10.90;99.90;;;;;;5008752;28;20190;-65
2024/03/13 00:37:59;;;;;;;40.77;14.60;;;10.80;99.90;;;;;;5040129;28;20197;-65
2024/03/13 00:40:28;;;;;;;34.93;13.17;;;10.90;99.90;;;;;;5006859;28;20233;-65
2024/03/13 00:42:57;;;;;;;33.37;13.60;;;10.80;99.90;;;;;;5009821;28;20268;-65
2024/03/13 00:45:27;;;;;;;33.27;14.00;;;10.80;99.90;;;;;;5008425;28;20292;-66
2024/03/13 00:47:56;;;;;;;36.70;13.97;;;10.80;99.90;;;;;;5025475;28;20224;-65
2024/03/13 00:50:24;;;;;;;36.77;15.13;;;10.80;99.90;;;;;;5009545;28;20233;-66
2024/03/13 00:52:56;;;;;;;38.13;14.43;;;10.80;99.90;;;;;;5009419;28;20237;-66
2024/03/13 00:55:27;;;;;;;39.03;14.23;;;10.80;99.90;;;;;;5005585;28;20244;-66
2024/03/13 00:57:55;;;;;;;40.27;13.63;;;10.70;99.90;;;;;;5009401;28;20228;-65
2024/03/13 01:00:28;;;;;;;36.77;14.20;;;10.80;99.90;;;;;;5043305;28;20287;-65
2024/03/13 01:02:57;;;;;;;34.77;13.70;;;10.80;99.90;;;;;;5008933;28;20339;-66
2024/03/13 01:05:25;;;;;;;29.33;12.47;;;10.70;99.90;;;;;;5009662;28;20194;-63
2024/03/13 01:07:56;;;;;;;34.13;12.90;;;10.70;99.90;;;;;;5011426;28;20648;-65
2024/03/13 01:10:26;;;;;;;45.00;13.90;;;10.80;99.90;;;;;;5009373;28;20224;-65
2024/03/13 01:12:55;;;;;;;34.63;13.13;;;10.80;99.90;;;;;;5008403;28;20315;-64
2024/03/13 01:15:24;;;;;;;37.03;13.67;;;10.80;99.90;;;;;;5008424;28;20222;-65
2024/03/13 01:17:53;;;;;;;30.47;12.83;;;10.80;99.90;;;;;;5009098;28;20623;-64
2024/03/13 01:20:21;;;;;;;32.03;13.13;;;10.80;99.90;;;;;;5008187;28;20246;-64
2024/03/13 01:22:50;;;;;;;39.63;13.37;;;10.80;99.90;;;;;;5008210;28;20704;-65
2024/03/13 01:25:19;;;;;;;35.67;12.97;;;10.80;99.90;;;;;;5009891;28;20214;-65
2024/03/13 01:27:48;;;;;;;36.10;13.43;;;10.80;99.90;;;;;;5010374;28;20300;-65
2024/03/13 01:30:17;;;;;;;30.73;12.23;;;10.70;99.90;;;;;;5010362;28;20225;-65
2024/03/13 01:32:47;;;;;;;37.70;12.23;;;10.70;99.90;;;;;;5009891;28;20230;-65
2024/03/13 01:35:19;;;;;;;33.27;11.97;;;10.70;99.90;;;;;;5004460;28;20217;-65
2024/03/13 01:37:55;;;;;;;31.60;12.13;;;10.70;99.90;;;;;;5009822;28;20257;-65
2024/03/13 01:54:50;;;;;;;31.90;11.67;;;10.70;99.90;;;;;;5009442;28;20225;-65
2024/03/13 01:54:54;;;;;;;25.30;10.10;;;10.60;99.90;;;;;;5008290;28;20222;-65
2024/03/13 01:57:32;;;;;;;21.17;9.97;;;10.60;99.90;;;;;;5009581;28;20225;-65
2024/03/13 02:02:51;;;;;;;21.87;7.93;;;10.60;99.90;;;;;;5006755;28;20237;-64
2024/03/13 02:05:21;;;;;;;19.77;8.73;;;10.70;99.90;;;;;;5008745;28;20535;-65
2024/03/13 02:07:50;;;;;;;26.63;8.00;;;10.60;99.90;;;;;;5011157;28;20233;-66
2024/03/13 02:10:18;;;;;;;28.57;7.63;;;10.60;99.90;;;;;;5010271;28;20214;-65
2024/03/13 02:13:05;;;;;;;20.83;7.30;;;10.60;99.90;;;;;;5009059;28;20700;-64
2024/03/13 02:15:34;;;;;;;19.40;7.30;;;10.60;99.90;;;;;;5012428;28;20225;-65
2024/03/13 02:18:14;;;;;;;19.50;6.93;;;10.60;99.90;;;;;;5014545;28;20226;-65
2024/03/13 02:20:44;;;;;;;17.17;6.40;;;10.60;99.90;;;;;;5012630;28;21731;-65
2024/03/13 02:23:16;;;;;;;17.10;6.57;;;10.60;99.90;;;;;;5011797;28;20200;-65
2024/03/13 02:25:45;;;;;;;19.10;6.37;;;10.60;99.90;;;;;;5011779;28;20697;-65
2024/03/13 02:28:14;;;;;;;16.80;5.80;;;10.50;99.90;;;;;;5011802;28;20222;-65
2024/03/13 02:30:43;;;;;;;15.63;5.50;;;10.50;99.90;;;;;;4994639;28;20214;-65
2024/03/13 02:33:12;;;;;;;20.03;6.30;;;10.50;99.90;;;;;;5006200;28;20663;-65
2024/03/13 02:35:43;;;;;;;21.60;6.67;;;10.50;99.90;;;;;;4993438;28;20222;-65
2024/03/13 02:38:11;;;;;;;22.20;5.80;;;10.50;99.90;;;;;;4994812;28;20235;-65
2024/03/13 02:40:40;;;;;;;19.33;6.10;;;10.50;99.90;;;;;;5005333;28;20218;-65
2024/03/13 02:43:08;;;;;;;18.63;5.70;;;10.50;99.90;;;;;;4996384;28;20222;-65
2024/03/13 02:45:36;;;;;;;14.43;5.93;;;10.50;99.90;;;;;;4991632;28;20694;-65
2024/03/13 02:48:06;;;;;;;20.73;5.87;;;10.60;99.90;;;;;;4994432;28;20252;-65
2024/03/13 02:50:35;;;;;;;16.90;5.20;;;10.60;99.90;;;;;;4993878;28;20232;-65
2024/03/13 02:53:04;;;;;;;19.93;5.30;;;10.60;99.90;;;;;;4999359;28;20221;-65
2024/03/13 02:55:33;;;;;;;19.50;5.33;;;10.50;99.90;;;;;;5011522;28;20593;-65
2024/03/13 02:58:02;;;;;;;20.50;5.87;;;10.60;99.90;;;;;;5013381;28;20614;-65
2024/03/13 03:00:30;;;;;;;24.00;6.93;;;10.50;99.90;;;;;;4995601;28;20700;-64
2024/03/13 03:03:01;;;;;;;13.50;5.13;;;10.50;99.90;;;;;;4996603;28;20675;-65
2024/03/13 03:05:30;;;;;;;19.97;5.60;;;10.60;99.90;;;;;;5026177;28;20230;-66
2024/03/13 03:07:58;;;;;;;17.33;5.60;;;10.50;99.90;;;;;;5011808;28;20645;-66
2024/03/13 03:10:27;;;;;;;20.93;5.90;;;10.50;99.90;;;;;;5009822;28;20587;-64
2024/03/13 03:12:56;;;;;;;17.93;5.57;;;10.60;99.90;;;;;;4990882;28;20225;-65
2024/03/13 03:15:28;;;;;;;13.87;5.20;;;10.50;99.90;;;;;;5014244;28;20240;-66
2024/03/13 03:17:57;;;;;;;15.43;5.77;;;10.50;99.90;;;;;;4994398;28;20209;-65
2024/03/13 03:20:25;;;;;;;19.77;6.00;;;10.50;99.90;;;;;;4994189;28;20557;-65
2024/03/13 03:22:54;;;;;;;16.00;5.60;;;10.50;99.90;;;;;;4994841;28;20565;-66
2024/03/13 03:25:24;;;;;;;11.67;5.30;;;10.60;99.90;;;;;;4992693;28;20288;-65
2024/03/13 03:27:52;;;;;;;16.23;5.27;;;10.60;99.90;;;;;;5009882;28;20219;-65
2024/03/13 03:30:21;;;;;;;21.77;6.00;;;10.50;99.90;;;;;;5025916;28;20219;-66
2024/03/13 03:32:49;;;;;;;15.67;5.23;;;10.60;99.90;;;;;;5007868;28;20733;-65
2024/03/13 03:35:18;;;;;;;20.17;5.73;;;10.60;99.90;;;;;;4995955;28;20190;-66
2024/03/13 03:37:47;;;;;;;17.67;6.07;;;10.60;99.90;;;;;;5011297;28;20216;-65
2024/03/13 03:40:16;;;;;;;21.67;6.40;;;10.60;99.90;;;;;;4996718;28;20229;-66
2024/03/13 03:42:46;;;;;;;18.70;6.87;;;10.60;99.90;;;;;;4994498;28;20719;-65
2024/03/13 03:45:16;;;;;;;17.77;7.50;;;10.60;99.90;;;;;;5012353;28;20696;-65
2024/03/13 03:47:45;;;;;;;19.10;7.43;;;10.50;99.90;;;;;;4997995;28;20533;-65
2024/03/13 03:50:24;;;;;;;12.47;6.60;;;10.60;99.90;;;;;;5027060;28;20202;-65
2024/03/13 03:52:53;;;;;;;16.80;7.10;;;10.60;99.90;;;;;;4996877;28;20293;-65
2024/03/13 03:55:21;;;;;;;19.37;7.23;;;10.60;99.90;;;;;;5012719;28;20586;-65
2024/03/13 03:57:50;;;;;;;26.47;7.90;;;10.60;99.90;;;;;;5008296;28;20214;-65
2024/03/13 04:00:22;;;;;;;25.03;7.80;;;10.60;99.90;;;;;;5009744;28;20272;-65
2024/03/13 04:02:52;;;;;;;19.53;7.80;;;10.60;99.90;;;;;;4990865;28;20253;-65
2024/03/13 04:05:20;;;;;;;17.77;7.80;;;10.60;99.90;;;;;;4993771;28;20208;-65
2024/03/13 04:07:51;;;;;;;23.63;8.33;;;10.60;99.90;;;;;;4993083;28;20218;-66
2024/03/13 04:10:20;;;;;;;23.50;7.90;;;10.60;99.90;;;;;;4993387;28;20217;-65
2024/03/13 04:12:49;;;;;;;15.57;8.03;;;10.60;99.90;;;;;;5028027;28;20280;-65
2024/03/13 04:22:40;;;;;;;16.90;7.83;;;10.50;99.90;;;;;;5009682;28;20577;-65
2024/03/13 04:25:09;;;;;;;22.90;8.27;;;10.50;99.90;;;;;;5024577;28;20323;-66
2024/03/13 04:27:37;;;;;;;28.07;8.43;;;10.60;99.90;;;;;;5011523;28;20228;-65
2024/03/13 04:30:06;;;;;;;25.40;8.40;;;10.50;99.90;;;;;;4995213;28;20760;-65
2024/03/13 04:32:35;;;;;;;19.93;8.10;;;10.60;99.90;;;;;;4981651;28;20202;-66
2024/03/13 04:35:04;;;;;;;36.50;9.03;;;10.60;99.90;;;;;;5010882;28;20220;-65
2024/03/13 04:37:33;;;;;;;19.63;8.40;;;10.60;99.90;;;;;;5010948;28;20210;-65
2024/03/13 04:40:01;;;;;;;24.17;8.47;;;10.50;99.90;;;;;;4993306;28;20269;-66
2024/03/13 04:42:30;;;;;;;20.50;8.33;;;10.60;99.90;;;;;;5010726;28;20256;-65
2024/03/13 04:44:59;;;;;;;25.53;8.40;;;10.60;99.90;;;;;;4973131;28;20230;-65
2024/03/13 04:47:29;;;;;;;21.53;8.60;;;10.50;99.90;;;;;;4973462;28;20202;-65
2024/03/13 04:49:58;;;;;;;20.03;8.40;;;10.50;99.90;;;;;;4991834;28;20245;-65
2024/03/13 04:52:26;;;;;;;20.43;8.50;;;10.60;99.90;;;;;;4983093;28;20221;-65
2024/03/13 04:54:55;;;;;;;22.30;9.37;;;10.50;99.90;;;;;;5010642;28;20222;-65
2024/03/13 04:57:23;;;;;;;17.27;8.43;;;10.50;99.90;;;;;;4988977;28;20268;-66
2024/03/13 04:59:51;;;;;;;18.33;9.00;;;10.60;99.90;;;;;;4993422;28;20222;-65
2024/03/13 05:02:20;;;;;;;20.63;8.90;;;10.50;99.90;;;;;;5021077;28;20311;-65
2024/03/13 05:04:48;;;;;;;25.03;9.10;;;10.50;99.90;;;;;;5001640;28;20317;-65
2024/03/13 05:07:18;;;;;;;24.77;9.53;;;10.60;99.90;;;;;;5011355;28;20238;-65
2024/03/13 05:09:47;;;;;;;26.20;9.57;;;10.50;99.90;;;;;;4995466;28;20268;-65
2024/03/13 05:12:15;;;;;;;27.13;9.50;;;10.50;99.90;;;;;;4992714;28;20307;-65
2024/03/13 05:14:43;;;;;;;22.47;8.93;;;10.50;99.90;;;;;;4995867;28;20673;-65
2024/03/13 05:17:15;;;;;;;25.47;9.27;;;10.50;99.90;;;;;;5011329;28;20286;-65
2024/03/13 05:19:44;;;;;;;23.90;9.80;;;10.50;99.90;;;;;;5001706;28;20221;-65
2024/03/13 05:22:13;;;;;;;20.00;9.77;;;10.60;99.90;;;;;;4990032;28;20585;-65
2024/03/13 05:24:42;;;;;;;17.53;8.87;;;10.60;99.90;;;;;;5018036;28;20229;-65
2024/03/13 05:27:11;;;;;;;23.03;9.13;;;10.60;99.90;;;;;;5010994;28;20233;-66
2024/03/13 05:29:39;;;;;;;21.97;9.60;;;10.60;99.90;;;;;;4996280;28;20518;-66
2024/03/13 05:32:09;;;;;;;22.40;9.60;;;10.60;99.90;;;;;;4992791;28;20299;-66
2024/03/13 05:34:38;;;;;;;33.00;9.77;;;10.60;99.90;;;;;;5007164;28;20229;-65
2024/03/13 05:37:07;;;;;;;35.17;10.57;;;10.60;99.90;;;;;;4993205;28;20218;-65
2024/03/13 05:39:36;;;;;;;27.93;11.13;;;10.60;99.90;;;;;;4995216;28;20229;-65
2024/03/13 05:42:05;;;;;;;28.27;11.37;;;10.60;99.90;;;;;;4994910;28;20229;-65
2024/03/13 05:44:34;;;;;;;28.63;11.10;;;10.60;99.90;;;;;;5011035;28;20305;-65
2024/03/13 05:47:02;;;;;;;24.97;10.80;;;10.60;99.90;;;;;;5011620;28;20218;-66
2024/03/13 05:49:30;;;;;;;24.60;11.10;;;10.60;99.90;;;;;;4997221;28;20228;-65
2024/03/13 05:51:59;;;;;;;26.03;11.60;;;10.60;99.90;;;;;;4998197;28;20279;-65
2024/03/13 05:54:28;;;;;;;22.93;11.17;;;10.60;99.90;;;;;;5014188;28;20578;-65
2024/03/13 05:56:58;;;;;;;25.70;11.30;;;10.60;99.90;;;;;;5013485;28;20248;-65
2024/03/13 05:59:27;;;;;;;25.73;11.10;;;10.60;99.90;;;;;;4982747;28;20194;-64
2024/03/13 06:01:56;;;;;;;25.00;11.43;;;10.60;99.90;;;;;;5013161;28;20615;-65
2024/03/13 06:04:24;;;;;;;29.20;11.67;;;10.60;99.90;;;;;;4996133;28;20214;-66
2024/03/13 06:06:53;;;;;;;28.63;12.00;;;10.60;99.90;;;;;;4992055;28;20232;-66
2024/03/13 06:09:22;;;;;;;24.93;11.53;;;10.60;99.90;;;;;;4996478;28;20230;-65
2024/03/13 06:11:50;;;;;;;23.83;12.00;;;10.60;99.90;;;;;;4997848;28;20225;-66
2024/03/13 06:14:19;;;;;;;31.43;12.40;;;10.60;99.90;;;;;;4998592;28;20213;-65
2024/03/13 06:16:47;;;;;;;25.03;12.00;;;10.60;99.90;;;;;;4997603;28;20236;-65
2024/03/13 06:19:16;;;;;;;24.67;12.37;;;10.60;99.90;;;;;;4997017;28;22517;-65
2024/03/13 06:21:44;;;;;;;25.07;12.37;;;10.60;99.90;;;;;;5012235;28;20226;-66
2024/03/13 06:24:20;;;;;;;29.30;12.03;;;10.60;99.90;;;;;;5006500;28;20234;-65
2024/03/13 06:26:49;;;;;;;21.90;11.17;;;10.60;99.90;;;;;;5025120;28;20253;-65
2024/03/13 06:32:06;;;;;;;19.63;10.37;;;10.60;99.90;;;;;;5010338;28;20230;-65
2024/03/13 06:34:35;;;;;;;18.87;9.80;;;10.60;99.90;;;;;;4998296;28;20304;-65
2024/03/13 06:37:05;;;;;;;21.30;10.53;;;10.60;99.90;;;;;;5014098;28;20217;-66
2024/03/13 06:39:34;;;;;;;18.43;9.77;;;10.60;99.90;;;;;;4998149;28;20229;-65
2024/03/13 06:42:02;;;;;;;25.63;10.80;;;10.60;99.90;;;;;;4993360;28;20625;-65
2024/03/13 06:44:31;;;;;;;19.57;9.67;;;10.70;99.90;;;;;;5001203;28;20194;-64
2024/03/13 06:46:59;;;;;;;20.23;9.60;;;10.70;99.90;;;;;;4996464;28;20679;-65
2024/03/13 06:49:29;;;;;;;16.17;9.90;;;10.70;99.90;;;;;;5013563;28;20237;-66
2024/03/13 06:51:58;;;;;;;20.10;8.90;;;10.70;99.90;;;;;;4989323;28;20287;-65
2024/03/13 06:54:26;;;;;;;20.33;9.33;;;10.70;99.90;;;;;;5036804;28;20623;-66
2024/03/13 06:56:54;;;;;;;17.43;8.70;;;10.70;99.90;;;;;;5006484;28;20235;-66
2024/03/13 06:59:23;;;;;;;15.60;9.00;;;10.70;99.90;;;;;;5012674;28;20668;-66
2024/03/13 07:01:52;;;;;;;17.93;8.67;;;10.70;99.90;;;;;;5008383;28;20214;-66
2024/03/13 07:04:22;;;;;;;19.77;8.57;;;10.70;99.90;;;;;;4997296;28;20320;-66
2024/03/13 07:06:56;;;;;;;16.40;8.40;;;10.70;99.90;;;;;;5011636;28;20225;-66
2024/03/13 07:09:26;;;;;;;15.90;7.60;;;10.70;99.90;;;;;;5009801;28;20222;-66
2024/03/13 07:11:54;;;;;;;15.73;8.10;;;10.70;99.90;;;;;;5022523;28;20232;-67
2024/03/13 07:14:26;;;;;;;14.03;7.00;;;10.70;99.90;;;;;;5023249;28;20276;-65
2024/03/13 07:16:55;;;;;;;13.50;7.13;;;10.70;99.90;;;;;;5014309;28;20644;-66
2024/03/13 07:19:24;;;;;;;14.23;6.43;;;10.70;99.90;;;;;;5011991;28;20229;-66
2024/03/13 07:21:52;;;;;;;13.50;6.30;;;10.70;99.90;;;;;;5000122;28;20229;-67
2024/03/13 07:24:21;;;;;;;12.53;6.10;;;10.80;99.90;;;;;;4995511;28;20753;-66
2024/03/13 07:26:49;;;;;;;11.93;5.73;;;10.80;99.90;;;;;;5011603;28;20308;-66
2024/03/13 07:29:18;;;;;;;6.93;5.40;;;10.80;99.90;;;;;;4998018;28;20281;-67
2024/03/13 07:31:46;;;;;;;11.87;5.60;;;10.80;99.90;;;;;;4996608;28;20218;-66
2024/03/13 07:34:16;;;;;;;9.10;5.00;;;10.80;99.90;;;;;;4993246;28;20226;-66
2024/03/13 07:36:45;;;;;;;10.43;5.00;;;10.90;99.90;;;;;;4988294;28;20276;-66
2024/03/13 07:39:14;;;;;;;6.93;4.30;;;10.80;99.90;;;;;;4990182;28;20264;-66
2024/03/13 07:41:43;;;;;;;8.97;4.57;;;10.80;99.90;;;;;;5013122;28;20232;-66
2024/03/13 07:44:12;;;;;;;13.97;5.23;;;10.90;99.90;;;;;;4991217;28;20218;-67
2024/03/13 07:46:40;;;;;;;4.33;3.93;;;10.90;99.90;;;;;;4988399;28;20226;-67
2024/03/13 07:49:08;;;;;;;12.10;5.17;;;10.90;99.90;;;;;;4999778;28;20566;-66
2024/03/13 07:51:38;;;;;;;9.03;4.23;;;10.90;99.90;;;;;;4992910;28;20227;-66
2024/03/13 07:54:07;;;;;;;8.00;3.90;;;11.00;99.90;;;;;;4982908;28;20280;-66
2024/03/13 07:56:36;;;;;;;8.37;3.90;;;11.00;99.90;;;;;;4980659;28;20202;-66
2024/03/13 07:59:06;;;;;;;7.77;3.60;;;11.10;99.90;;;;;;4997305;28;20194;-66
2024/03/13 08:01:41;;;;;;;6.73;3.90;;;11.00;99.90;;;;;;4996060;28;20240;-67
2024/03/13 08:04:11;;;;;;;9.73;3.57;;;11.10;99.90;;;;;;5011786;28;20225;-66
2024/03/13 08:06:40;;;;;;;6.67;3.60;;;11.10;99.90;;;;;;4996684;28;20312;-66
2024/03/13 08:09:28;;;;;;;4.67;3.43;;;11.20;99.90;;;;;;4992151;28;20728;-66
2024/03/13 08:12:13;;;;;;;5.50;3.10;;;11.20;99.90;;;;;;4981516;28;20234;-67
2024/03/13 08:14:59;;;;;;;8.07;3.43;;;11.30;99.90;;;;;;5008492;28;20237;-65
2024/03/13 08:17:46;;;;;;;5.77;3.27;;;11.30;99.90;;;;;;4996216;28;20202;-67
2024/03/13 08:20:32;;;;;;;6.53;3.03;;;11.30;99.90;;;;;;4998808;28;20194;-66
2024/03/13 08:23:18;;;;;;;5.30;3.07;;;11.30;99.90;;;;;;5001847;28;20244;-66
2024/03/13 08:26:04;;;;;;;12.00;3.50;;;11.40;99.90;;;;;;4998912;28;20303;-65
2024/03/13 08:28:52;;;;;;;4.00;2.50;;;11.40;99.90;;;;;;5012424;28;20229;-66
2024/03/13 08:31:57;;;;;;;6.90;3.03;;;11.50;99.90;;;;;;4992854;28;20300;-66
2024/03/13 08:34:43;;;;;;;5.43;3.20;;;11.50;99.90;;;;;;4988785;28;20222;-66
2024/03/13 08:37:28;;;;;;;5.73;2.87;;;11.50;99.90;;;;;;4997186;28;20225;-66
2024/03/13 08:40:15;;;;;;;5.67;3.00;;;11.50;99.90;;;;;;4998190;28;20232;-65
2024/03/13 08:43:00;;;;;;;3.70;2.60;;;11.60;99.90;;;;;;4997744;28;20230;-67
2024/03/13 08:45:46;;;;;;;3.17;2.83;;;11.70;99.90;;;;;;5005049;28;20226;-66
2024/03/13 08:48:32;;;;;;;4.33;2.33;;;11.80;99.90;;;;;;4995969;28;20233;-65
2024/03/13 08:51:18;;;;;;;6.13;2.57;;;12.00;99.90;;;;;;4997436;28;20265;-67
2024/03/13 08:54:05;;;;;;;2.10;2.00;;;12.10;99.90;;;;;;4991011;28;20589;-66
2024/03/13 08:56:51;;;;;;;2.50;2.27;;;12.40;99.90;;;;;;4998373;28;20225;-67
2024/03/13 08:59:37;;;;;;;2.80;2.00;;;12.70;99.90;;;;;;4984298;28;20680;-66
2024/03/13 09:02:23;;;;;;;2.70;1.77;;;12.90;99.90;;;;;;5009755;28;20209;-67
2024/03/13 09:05:09;;;;;;;4.50;1.87;;;13.00;99.90;;;;;;5013791;28;20234;-67
2024/03/13 09:07:55;;;;;;;3.83;2.00;;;13.10;99.90;;;;;;5013763;28;20236;-66
2024/03/13 09:10:24;;;;;;;2.10;2.00;;;13.10;99.90;;;;;;4984913;28;20230;-65
2024/03/13 09:12:52;;;;;;;4.00;1.87;;;13.20;99.90;;;;;;4995595;28;20218;-66
2024/03/13 09:15:23;;;;;;;4.30;2.10;;;13.20;99.90;;;;;;4995599;28;20229;-67
2024/03/13 09:17:53;;;;;;;2.97;1.77;;;13.20;99.90;;;;;;5000465;28;20281;-65
2024/03/13 09:20:25;;;;;;;2.83;1.80;;;13.30;99.90;;;;;;5008468;28;20274;-66
2024/03/13 09:22:54;;;;;;;2.20;1.70;;;13.30;99.90;;;;;;4975010;28;20278;-66
2024/03/13 09:25:22;;;;;;;5.17;1.80;;;13.40;99.90;;;;;;4987383;28;20230;-66
2024/03/13 09:27:51;;;;;;;2.77;1.60;;;13.40;99.90;;;;;;4991156;28;20300;-66
2024/03/13 09:30:19;;;;;;;2.60;1.73;;;13.40;99.90;;;;;;4999560;28;20226;-66
2024/03/13 09:32:48;;;;;;;1.53;1.47;;;13.40;99.90;;;;;;4999426;28;20271;-66
2024/03/13 09:35:17;;;;;;;2.77;1.70;;;13.40;99.90;;;;;;5000356;28;20187;-66
2024/03/13 09:37:46;;;;;;;2.13;1.53;;;13.50;99.90;;;;;;4999531;28;20704;-66
2024/03/13 09:40:16;;;;;;;2.87;1.53;;;13.50;99.90;;;;;;4999243;28;20218;-66
2024/03/13 09:42:46;;;;;;;3.93;1.50;;;13.40;99.90;;;;;;4999365;28;20252;-66
2024/03/13 09:45:16;;;;;;;3.97;1.50;;;13.30;99.90;;;;;;5015364;28;20226;-66
2024/03/13 09:47:45;;;;;;;4.07;1.53;;;13.30;99.90;;;;;;4996155;28;20221;-65
2024/03/13 09:50:13;;;;;;;2.97;1.60;;;13.20;99.90;;;;;;4998829;28;20264;-64
2024/03/13 09:52:42;;;;;;;1.20;1.20;;;13.10;99.90;;;;;;4998913;28;20276;-65
2024/03/13 09:55:11;;;;;;;1.50;1.40;;;13.10;99.90;;;;;;4998560;28;20213;-64
2024/03/13 09:57:40;;;;;;;1.40;1.30;;;13.10;99.90;;;;;;4995231;28;20222;-65
2024/03/13 10:00:10;;;;;;;1.83;1.20;;;13.20;99.90;;;;;;4998785;28;20226;-67
2024/03/13 10:02:39;;;;;;;5.30;1.73;;;13.10;99.90;;;;;;4998486;28;20198;-65
2024/03/13 10:05:11;;;;;;;1.47;1.40;;;13.10;99.90;;;;;;4997700;28;20207;-65
2024/03/13 10:07:39;;;;;;;1.57;1.40;;;13.20;99.90;;;;;;5014564;28;20584;-65
2024/03/13 10:10:11;;;;;;;2.70;1.37;;;13.20;99.90;;;;;;5014137;28;20624;-65
2024/03/13 10:12:41;;;;;;;1.80;1.40;;;13.30;99.90;;;;;;4998641;28;20716;-64
2024/03/13 10:15:10;;;;;;;1.20;1.20;;;13.20;99.90;;;;;;5014589;28;20221;-65
2024/03/13 10:17:40;;;;;;;1.67;1.23;;;13.30;99.90;;;;;;5001084;28;20198;-64
2024/03/13 10:20:13;;;;;;;1.90;1.20;;;13.40;99.90;;;;;;4998717;28;20272;-65
2024/03/13 10:22:43;;;;;;;1.07;1.07;;;13.40;99.90;;;;;;5014580;28;20310;-65
2024/03/13 10:25:15;;;;;;;1.60;1.10;;;13.40;99.90;;;;;;4998834;28;20237;-65
2024/03/13 10:27:43;;;;;;;2.10;1.33;;;13.40;99.90;;;;;;5020207;28;20222;-65
2024/03/13 10:30:14;;;;;;;1.70;1.03;;;13.40;99.90;;;;;;4993636;28;20226;-66
2024/03/13 10:32:43;;;;;;;2.50;1.20;;;13.40;99.90;;;;;;4978381;28;20195;-65
2024/03/13 10:35:11;;;;;;;2.07;1.20;;;13.30;99.90;;;;;;4998311;28;20290;-65
2024/03/13 10:37:41;;;;;;;1.63;1.30;;;13.30;99.90;;;;;;4990047;28;20808;-65
2024/03/13 10:40:14;;;;;;;1.27;1.20;;;13.20;99.90;;;;;;5026752;28;20240;-65
2024/03/13 10:42:47;;;;;;;1.17;1.17;;;13.20;99.90;;;;;;4982856;28;20222;-64
2024/03/13 10:45:15;;;;;;;1.83;1.27;;;13.20;99.90;;;;;;5016465;28;20704;-64
2024/03/13 10:47:46;;;;;;;1.13;0.90;;;13.30;99.90;;;;;;5030068;28;20276;-64
2024/03/13 10:50:14;;;;;;;2.20;1.10;;;13.40;99.90;;;;;;5014630;28;20202;-64
2024/03/13 10:52:44;;;;;;;1.33;1.23;;;13.30;99.90;;;;;;5013720;28;20219;-64
2024/03/13 10:55:12;;;;;;;1.27;1.20;;;13.30;99.90;;;;;;5025247;28;20218;-64
2024/03/13 10:57:41;;;;;;;3.90;1.20;;;13.30;99.90;;;;;;4989454;28;20230;-65
2024/03/13 11:00:11;;;;;;;2.83;1.43;;;13.40;99.90;;;;;;4994262;28;20215;-64
2024/03/13 11:02:40;;;;;;;2.07;1.10;;;13.40;99.90;;;;;;4996854;28;20198;-64
2024/03/13 11:05:10;;;;;;;1.13;0.90;;;13.40;99.90;;;;;;4997757;28;20214;-65
2024/03/13 11:07:39;;;;;;;1.47;1.27;;;13.50;99.90;;;;;;5000259;28;20223;-64
2024/03/13 11:10:09;;;;;;;1.13;1.13;;;13.50;99.90;;;;;;4997807;28;20222;-65
2024/03/13 11:12:37;;;;;;;1.40;1.23;;;13.60;99.90;;;;;;4997513;28;20226;-64
2024/03/13 11:15:07;;;;;;;1.43;1.33;;;13.60;99.90;;;;;;4997381;28;20226;-65
2024/03/13 11:17:35;;;;;;;1.07;0.97;;;13.50;99.90;;;;;;4997876;28;20540;-65
2024/03/13 11:20:06;;;;;;;1.10;1.10;;;13.50;99.90;;;;;;4994919;28;20637;-65
2024/03/13 11:22:34;;;;;;;1.43;1.10;;;13.40;99.90;;;;;;4988440;28;20230;-65
2024/03/13 11:25:06;;;;;;;1.53;1.13;;;13.40;99.90;;;;;;4997349;28;20239;-65
2024/03/13 11:27:35;;;;;;;1.37;1.27;;;13.40;99.90;;;;;;4993391;28;20227;-65
2024/03/13 11:30:05;;;;;;;1.23;1.23;;;13.40;99.90;;;;;;5011409;28;20219;-65
2024/03/13 11:32:35;;;;;;;1.70;1.20;;;13.50;99.90;;;;;;5028865;28;20194;-66
2024/03/13 11:35:05;;;;;;;1.20;1.10;;;13.60;99.90;;;;;;5013491;28;20209;-65
2024/03/13 11:37:36;;;;;;;1.70;1.20;;;13.60;99.90;;;;;;4996624;28;20226;-65
2024/03/13 11:40:06;;;;;;;1.27;1.27;;;13.60;99.90;;;;;;4997371;28;20226;-65
2024/03/13 11:42:36;;;;;;;1.63;1.23;;;13.50;99.90;;;;;;5008516;28;20221;-65
2024/03/13 11:45:16;;;;;;;1.30;1.20;;;13.50;99.90;;;;;;5012671;28;20608;-66
2024/03/13 11:47:48;;;;;;;2.27;1.27;;;13.40;99.90;;;;;;4995094;28;25604;-64
2024/03/13 11:50:18;;;;;;;1.20;1.10;;;13.40;99.90;;;;;;4994821;28;20608;-65
2024/03/13 11:53:24;;;;;;;0.90;0.90;;;13.40;99.90;;;;;;4996881;28;20250;-65
2024/03/13 11:56:13;;;;;;;1.33;1.07;;;13.50;99.90;;;;;;5011471;28;20191;-65
2024/03/13 11:58:42;;;;;;;1.20;1.10;;;13.50;99.90;;;;;;5008001;28;20737;-65
2024/03/13 12:01:12;;;;;;;1.10;1.10;;;13.50;99.90;;;;;;4995975;28;20214;-64
2024/03/13 12:03:47;;;;;;;1.20;1.10;;;13.40;99.90;;;;;;5014605;28;20280;-66
2024/03/13 12:06:38;;;;;;;1.00;1.00;;;13.50;99.90;;;;;;4996416;28;20241;-65
2024/03/13 12:09:10;;;;;;;1.20;1.20;;;13.60;99.90;;;;;;4988556;28;20300;-64
2024/03/13 12:11:40;;;;;;;0.87;0.87;;;13.70;99.90;;;;;;5004911;28;20243;-65
2024/03/13 12:14:09;;;;;;;2.07;1.00;;;13.70;99.90;;;;;;4996371;28;20191;-64
2024/03/13 12:16:37;;;;;;;1.30;1.20;;;13.70;99.90;;;;;;4996769;28;20233;-65
2024/03/13 12:19:05;;;;;;;1.33;1.23;;;13.70;99.90;;;;;;5008108;28;20305;-64
2024/03/13 12:25:03;;;;;;;1.30;1.13;;;13.50;99.90;;;;;;5014514;28;20386;-65
2024/03/13 12:27:35;;;;;;;1.30;1.27;;;13.40;99.90;;;;;;4996276;28;20732;-65
2024/03/13 12:30:04;;;;;;;1.30;1.20;;;13.50;99.90;;;;;;5011981;28;20226;-65
2024/03/13 12:35:56;;;;;;;1.40;1.40;;;13.50;99.90;;;;;;5011514;28;20272;-65
2024/03/13 12:38:36;;;;;;;1.63;1.53;;;13.50;99.90;;;;;;5012071;28;20254;-66
2024/03/13 12:44:45;;;;;;;1.70;1.70;;;13.70;99.90;;;;;;5004843;28;20573;-65
2024/03/13 12:47:13;;;;;;;2.10;2.00;;;13.70;99.90;;;;;;4997254;28;20707;-65
2024/03/13 12:49:41;;;;;;;1.97;1.80;;;13.80;99.90;;;;;;5011509;28;20231;-66
2024/03/13 12:52:10;;;;;;;2.10;2.07;;;13.80;99.90;;;;;;4975063;28;20223;-65
2024/03/13 12:54:39;;;;;;;2.40;2.30;;;13.80;99.90;;;;;;4990258;28;20240;-65
2024/03/13 12:57:07;;;;;;;2.30;2.20;;;13.90;99.90;;;;;;4989272;28;20229;-65
2024/03/13 12:59:37;;;;;;;3.20;2.10;;;14.00;99.90;;;;;;5027187;28;20233;-65
2024/03/13 13:02:09;;;;;;;2.77;2.60;;;13.90;99.90;;;;;;4988022;28;20191;-66
2024/03/13 13:04:40;;;;;;;2.00;2.00;;;13.80;99.90;;;;;;4994111;28;20220;-65
2024/03/13 13:07:08;;;;;;;2.10;2.10;;;13.80;99.90;;;;;;5017345;28;20315;-65
2024/03/13 13:09:37;;;;;;;2.00;2.00;;;13.70;99.90;;;;;;4994825;28;20218;-65
2024/03/13 13:12:06;;;;;;;1.90;1.80;;;13.70;99.90;;;;;;5007734;28;20305;-65
2024/03/13 13:14:34;;;;;;;2.40;2.20;;;13.60;99.90;;;;;;4987175;28;20214;-65
2024/03/13 13:17:03;;;;;;;1.80;1.80;;;13.60;99.90;;;;;;4995497;28;20195;-65
2024/03/13 13:19:32;;;;;;;1.80;1.80;;;13.50;99.90;;;;;;4992920;28;20574;-65
2024/03/13 13:22:01;;;;;;;1.80;1.70;;;13.50;99.90;;;;;;5003918;28;20224;-65
2024/03/13 13:24:29;;;;;;;2.03;1.80;;;13.40;99.90;;;;;;5009356;28;20308;-65
2024/03/13 13:26:57;;;;;;;1.63;1.50;;;13.40;99.90;;;;;;5013829;28;20221;-65
2024/03/13 13:29:26;;;;;;;2.50;1.50;;;13.40;99.90;;;;;;4994775;28;20565;-63
2024/03/13 13:31:54;;;;;;;1.53;1.50;;;13.40;99.90;;;;;;5005434;28;20560;-65